Terminal Aerodrome Forecast
Issued by NWS Lake Charles, LA

Home | Current Version | Previous Version | Text Only | Print | Product List | Glossary On
Versions: 1 2 3 4 5 6 7 8 9 10 11 12 13 14
701
FTUS44 KLCH 201720
TAFBPT
TAF
KBPT 201720Z 2018/2118 13007KT P6SM BKN200
     FM210000 13004KT P6SM FEW250
     FM211400 13006KT P6SM BKN200=

USA.gov is the U.S. government's official web portal to all federal, state and local government web resources and services.